Time;durP1;ratioP1;P1;durP2;ratioP2;P2;SDS_P1;SDS_P2;PMS_P1;PMS_P2;Temp;Humidity;BMP_temperature;BMP_pressure;BME280_temperature;BME280_humidity;BME280_pressure;Samples;Min_cycle;Max_cycle;Signal;HPM_P1;HPM_P2
2022/08/11 00:00:42;;;;;;;6.37;3.33;;;;;;;18.17;44.27;101667.43;1737173;80;25705;-60
2022/08/11 00:03:12;;;;;;;7.92;2.70;;;;;;;18.13;44.47;101674.88;1741390;80;26045;-60
2022/08/11 00:05:51;;;;;;;8.23;3.05;;;;;;;18.05;44.72;101670.86;1751507;80;98815;-60
2022/08/11 00:08:30;;;;;;;6.97;2.98;;;;;;;18.01;44.87;101670.64;1722894;81;28144;-60
2022/08/11 00:11:07;;;;;;;7.85;2.75;;;;;;;17.97;45.09;101674.02;1712959;81;98685;-60
2022/08/11 00:13:44;;;;;;;11.03;4.10;;;;;;;17.91;45.24;101670.30;1716710;81;25763;-60
2022/08/11 00:16:17;;;;;;;10.75;4.05;;;;;;;17.88;45.41;101667.77;1725355;81;99499;-60
2022/08/11 00:18:51;;;;;;;5.55;3.37;;;;;;;17.85;45.53;101672.02;1719916;81;26446;-60
2022/08/11 00:21:19;;;;;;;5.45;2.90;;;;;;;17.80;45.72;101672.27;1715830;81;27439;-60
2022/08/11 00:23:59;;;;;;;10.88;3.98;;;;;;;17.76;45.84;101669.83;1713824;81;98511;-60
2022/08/11 00:26:27;;;;;;;7.62;3.12;;;;;;;17.69;46.10;101664.36;1727796;81;25773;-61
2022/08/11 00:28:55;;;;;;;7.45;3.00;;;;;;;17.66;46.20;101666.76;1717265;81;98717;-59
2022/08/11 00:31:33;;;;;;;7.20;2.77;;;;;;;17.59;46.38;101669.39;1721389;81;26294;-59
2022/08/11 00:34:02;;;;;;;10.53;3.50;;;;;;;17.53;46.54;101670.61;1723626;81;98903;-60
2022/08/11 00:36:39;;;;;;;7.50;2.85;;;;;;;17.46;46.78;101665.62;1724899;81;25734;-60
2022/08/11 00:39:07;;;;;;;7.45;3.17;;;;;;;17.42;47.02;101666.75;1717933;81;25893;-59
2022/08/11 00:42:02;;;;;;;5.90;3.02;;;;;;;17.39;47.32;101668.27;1719831;81;98689;-61
2022/08/11 00:44:43;;;;;;;8.78;3.08;;;;;;;17.42;47.47;101662.68;1715277;81;25974;-59
2022/08/11 00:47:29;;;;;;;13.53;3.60;;;;;;;17.38;47.59;101661.98;1726884;81;98793;-60
2022/08/11 00:50:25;;;;;;;6.37;3.72;;;;;;;17.37;47.65;101666.12;1722458;81;26364;-60
2022/08/11 00:53:25;;;;;;;9.03;3.17;;;;;;;17.30;47.90;101658.81;1716038;81;98826;-60
2022/08/11 00:56:08;;;;;;;8.93;3.33;;;;;;;17.24;48.10;101663.70;1702949;81;26029;-60
2022/08/11 00:58:46;;;;;;;7.22;2.70;;;;;;;17.19;48.35;101662.59;1717020;81;98814;-60
2022/08/11 01:01:36;;;;;;;9.20;3.35;;;;;;;17.17;48.59;101659.97;1717276;81;27385;-60
2022/08/11 01:04:31;;;;;;;5.62;2.92;;;;;;;17.19;48.68;101664.82;1717596;81;98872;-60
2022/08/11 01:07:32;;;;;;;13.35;3.25;;;;;;;17.16;48.93;101664.99;1716467;81;26131;-60
2022/08/11 01:10:19;;;;;;;;;;;;;;;17.15;49.07;101663.72;1722259;81;99102;-60
2022/08/11 01:13:15;;;;;;;12.07;3.30;;;;;;;17.12;49.40;101657.98;1723150;81;26209;-59
2022/08/11 01:16:32;;;;;;;10.23;3.52;;;;;;;17.07;49.36;101663.27;1716017;81;99065;-60
2022/08/11 01:19:39;;;;;;;12.90;3.77;;;;;;;17.03;49.52;101655.78;1722854;81;26125;-60
2022/08/11 01:22:39;;;;;;;8.20;3.42;;;;;;;17.01;49.78;101660.41;1725174;81;98944;-60
2022/08/11 01:25:37;;;;;;;10.38;3.55;;;;;;;17.00;50.02;101657.30;1721006;81;26052;-59
2022/08/11 01:28:28;;;;;;;12.85;3.40;;;;;;;16.98;50.21;101656.98;1716848;81;99068;-61
2022/08/11 01:31:27;;;;;;;9.20;3.33;;;;;;;16.94;50.38;101661.70;1730993;81;29641;-61
2022/08/11 01:34:27;;;;;;;7.72;3.50;;;;;;;16.89;50.62;101665.13;1712721;81;98891;-60
2022/08/11 01:37:36;;;;;;;8.33;3.55;;;;;;;16.87;50.83;101663.86;1720919;81;26479;-61
2022/08/11 01:40:16;;;;;;;7.20;3.67;;;;;;;16.88;50.96;101663.38;1725027;81;98895;-60
2022/08/11 01:46:16;;;;;;;6.83;3.08;;;;;;;16.85;51.39;101664.89;1709100;81;98935;-59
2022/08/11 01:49:03;;;;;;;8.48;3.30;;;;;;;16.84;51.52;101660.44;1719367;81;25701;-60
2022/08/11 01:52:09;;;;;;;12.30;3.83;;;;;;;16.83;51.69;101660.91;1730286;81;98798;-64
2022/08/11 01:54:49;;;;;;;6.08;3.30;;;;;;;16.83;51.81;101656.85;1721567;81;26866;-59
2022/08/11 01:57:38;;;;;;;11.18;3.35;;;;;;;16.83;51.96;101655.97;1722666;81;25798;-59
2022/08/11 02:00:15;;;;;;;11.55;3.35;;;;;;;16.81;52.04;101656.53;1719122;81;98708;-61
2022/08/11 02:03:06;;;;;;;10.25;3.90;;;;;;;16.77;52.25;101654.95;1727361;81;25859;-59
2022/08/11 02:06:53;;;;;;;;;;;;;;;16.78;52.48;101653.52;1714469;81;98839;-60
2022/08/11 02:08:50;;;;;;;10.72;3.50;;;;;;;16.80;52.64;101658.84;1749733;80;27061;-60
2022/08/11 02:11:35;;;;;;;15.90;4.22;;;;;;;16.75;52.66;101652.80;1736980;80;98753;-59
2022/08/11 02:14:27;;;;;;;8.10;3.83;;;;;;;16.73;52.70;101655.59;1747287;80;29529;-59
2022/08/11 02:17:10;;;;;;;8.78;3.65;;;;;;;16.74;52.90;101658.69;1718697;81;98650;-60
2022/08/11 02:25:54;;;;;;;16.52;4.25;;;;;;;16.75;53.36;101650.97;1747778;80;26566;-60
2022/08/11 02:28:54;;;;;;;6.03;3.22;;;;;;;16.74;53.43;101643.80;1748397;80;98957;-60
2022/08/11 02:35:02;;;;;;;7.85;3.90;;;;;;;16.73;53.70;101646.59;1743650;80;98963;-60
2022/08/11 02:37:44;;;;;;;6.25;3.98;;;;;;;16.69;53.75;101651.77;1742369;80;26023;-59
2022/08/11 02:40:16;;;;;;;;;;;;;;;16.66;53.96;101649.22;1748963;80;98048;-59
2022/08/11 02:43:05;;;;;;;7.45;3.85;;;;;;;16.65;54.26;101647.00;1748869;80;27984;-60
2022/08/11 02:45:48;;;;;;;9.08;3.95;;;;;;;16.60;54.26;101654.45;1743830;80;25805;-59
2022/08/11 02:52:06;;;;;;;14.87;4.08;;;;;;;16.56;54.48;101646.97;1747227;80;26056;-61
2022/08/11 02:55:03;;;;;;;7.17;3.95;;;;;;;16.56;54.58;101655.09;1737691;80;98744;-59
2022/08/11 02:57:52;;;;;;;6.45;3.90;;;;;;;16.53;54.76;101656.59;1739809;80;27886;-60
2022/08/11 03:00:19;;;;;;;10.10;3.65;;;;;;;16.54;54.99;101658.35;1746608;80;97790;-60
2022/08/11 03:03:12;;;;;;;11.95;3.80;;;;;;;16.56;55.15;101658.27;1750626;80;25760;-60
2022/08/11 03:06:04;;;;;;;10.80;4.72;;;;;;;16.58;55.25;101653.66;1747030;80;98937;-61
2022/08/11 03:08:51;;;;;;;7.62;4.42;;;;;;;16.59;55.26;101666.70;1741683;80;25888;-59
2022/08/11 03:18:06;;;;;;;9.17;4.90;;;;;;;16.39;55.93;101661.84;1747717;80;98877;-61
2022/08/11 03:20:44;;;;;;;9.08;4.70;;;;;;;16.39;55.93;101661.84;1697623;82;26186;-60
2022/08/11 03:23:35;;;;;;;14.78;5.72;;;;;;;16.38;56.02;101663.28;1745488;80;98937;-60
2022/08/11 03:26:13;;;;;;;;;;;;;;;16.35;56.21;101665.66;1752144;80;28094;-60
2022/08/11 03:29:08;;;;;;;11.18;5.55;;;;;;;16.34;56.53;101666.63;1744332;80;84383;-61
2022/08/11 03:31:51;;;;;;;9.08;4.62;;;;;;;16.31;56.48;101666.78;1745652;80;25841;-60
2022/08/11 03:34:26;;;;;;;17.37;6.12;;;;;;;16.32;56.57;101673.06;1740947;80;98794;-61
2022/08/11 03:37:12;;;;;;;9.80;4.60;;;;;;;16.26;56.74;101669.31;1744619;80;25692;-61
2022/08/11 03:39:58;;;;;;;14.50;5.42;;;;;;;16.26;56.89;101666.61;1741887;80;27547;-60
2022/08/11 03:42:55;;;;;;;18.60;5.67;;;;;;;16.24;57.03;101672.97;1746749;80;98706;-60
2022/08/11 03:45:29;;;;;;;13.90;5.80;;;;;;;16.23;57.19;101677.11;1749283;80;25966;-60
2022/08/11 03:48:30;;;;;;;10.63;6.17;;;;;;;16.21;57.40;101676.31;1751536;80;98885;-60
2022/08/11 03:51:28;;;;;;;15.28;5.30;;;;;;;16.21;57.54;101671.78;1741137;80;26488;-60
2022/08/11 03:54:17;;;;;;;13.53;5.92;;;;;;;16.23;57.73;101677.11;1720652;81;98894;-60
2022/08/11 03:57:02;;;;;;;9.13;5.05;;;;;;;16.23;57.75;101683.39;1734755;80;25729;-60
2022/08/11 04:00:00;;;;;;;9.78;5.00;;;;;;;16.20;57.95;101684.91;1699135;80;98814;-60
2022/08/11 04:03:00;;;;;;;10.38;5.08;;;;;;;16.20;58.15;101688.08;1748969;80;26090;-62
2022/08/11 04:05:44;;;;;;;13.10;5.47;;;;;;;16.20;58.31;101677.27;1743510;80;99251;-60
2022/08/11 04:08:25;;;;;;;13.75;5.15;;;;;;;16.18;58.39;101677.81;1751026;80;28162;-59
2022/08/11 04:11:22;;;;;;;8.68;5.45;;;;;;;16.16;58.57;101672.96;1742718;80;99117;-60
2022/08/11 04:17:35;;;;;;;11.70;5.17;;;;;;;16.18;58.87;101675.11;1747582;80;98766;-60
2022/08/11 04:20:46;;;;;;;16.73;5.90;;;;;;;16.18;58.99;101672.41;1725069;81;25938;-60
2022/08/11 04:23:49;;;;;;;14.63;6.08;;;;;;;16.14;59.17;101678.92;1737473;80;98938;-60
2022/08/11 04:27:07;;;;;;;16.70;5.37;;;;;;;16.12;59.33;101689.82;1741860;80;25757;-60
2022/08/11 04:29:40;;;;;;;8.98;5.08;;;;;;;16.10;59.53;101688.14;1740616;80;99265;-60
2022/08/11 04:32:47;;;;;;;11.57;5.58;;;;;;;16.09;59.67;101679.62;1739248;80;26210;-59
2022/08/11 04:35:22;;;;;;;9.75;6.08;;;;;;;16.10;59.72;101684.09;1744624;80;99256;-61
2022/08/11 04:38:33;;;;;;;18.67;6.20;;;;;;;16.08;59.92;101687.34;1744377;80;26926;-60
2022/08/11 04:41:21;;;;;;;9.10;5.40;;;;;;;16.07;60.04;101685.59;1731489;80;99249;-60
2022/08/11 04:44:24;;;;;;;16.57;5.80;;;;;;;16.08;60.15;101681.94;1749044;80;26156;-60
2022/08/11 05:02:41;;;;;;;19.60;6.00;;;;;;;16.10;61.05;101688.14;1604093;87;26078;-59
2022/08/11 05:05:49;;;;;;;25.68;6.50;;;;;;;16.15;61.18;101687.44;1724161;80;98787;-60
2022/08/11 05:08:37;;;;;;;17.90;6.15;;;;;;;16.20;61.31;101695.72;1726002;80;27412;-61
2022/08/11 05:11:23;;;;;;;15.75;6.40;;;;;;;16.27;61.36;101685.95;1722835;81;98878;-60
2022/08/11 05:37:09;;;;;;;17.98;6.15;;;;;;;16.60;62.04;101696.88;1703949;82;98671;-60
2022/08/11 05:56:50;;;;;;;23.07;6.78;;;;;;;17.06;62.31;101694.89;1720740;81;25738;-59
2022/08/11 05:59:18;;;;;;;18.25;5.90;;;;;;;17.14;62.27;101699.42;1716202;81;98842;-61
2022/08/11 06:01:46;;;;;;;18.95;7.35;;;;;;;17.21;62.26;101693.19;1714959;81;25751;-60
2022/08/11 06:04:22;;;;;;;23.85;7.05;;;;;;;17.31;62.22;101693.56;1698381;82;28144;-61
2022/08/11 06:06:58;;;;;;;21.20;6.87;;;;;;;17.38;62.23;101701.27;1712223;81;98734;-60
2022/08/11 06:09:35;;;;;;;23.38;6.00;;;;;;;17.48;62.18;101703.00;1713754;81;25783;-60
2022/08/11 06:12:17;;;;;;;14.15;6.58;;;;;;;17.56;62.14;101695.31;1714749;81;98918;-60
2022/08/11 06:14:45;;;;;;;17.57;6.03;;;;;;;17.64;62.05;101701.19;1700911;82;25769;-60
2022/08/11 06:17:12;;;;;;;15.78;6.50;;;;;;;17.73;62.00;101698.47;1718635;81;99021;-60
2022/08/11 06:19:41;;;;;;;21.25;7.62;;;;;;;17.79;61.94;101694.93;1720716;81;25779;-61
2022/08/11 06:22:10;;;;;;;18.75;7.20;;;;;;;17.87;61.90;101702.63;1718569;81;25946;-61
2022/08/11 06:24:45;;;;;;;14.47;6.47;;;;;;;17.93;61.87;101697.34;1720729;81;98853;-60
2022/08/11 06:27:16;;;;;;;18.32;7.40;;;;;;;18.00;61.82;101701.45;1721974;81;26142;-60
2022/08/11 06:29:50;;;;;;;18.05;6.35;;;;;;;18.09;61.75;101702.27;1720855;81;99269;-61
2022/08/11 06:32:17;;;;;;;17.37;6.35;;;;;;;18.19;61.68;101698.06;1718041;81;26597;-60
2022/08/11 06:35:16;;;;;;;30.00;6.17;;;;;;;18.28;61.58;101704.28;1708166;81;99164;-61
2022/08/11 06:38:07;;;;;;;19.65;5.90;;;;;;;18.37;61.52;101694.72;1716589;81;26809;-61
2022/08/11 06:41:29;;;;;;;14.60;6.58;;;;;;;18.47;61.42;101698.63;1722111;81;99058;-61
2022/08/11 06:43:25;;;;;;;18.70;6.12;;;;;;;18.59;61.31;101698.38;1719911;81;28192;-60
2022/08/11 06:46:02;;;;;;;12.05;5.87;;;;;;;18.69;61.25;101698.25;1726052;81;25774;-60
2022/08/11 06:48:33;;;;;;;16.48;5.72;;;;;;;18.77;61.11;101696.83;1709018;81;98838;-61
2022/08/11 06:51:12;;;;;;;24.07;6.70;;;;;;;18.88;61.05;101693.94;1703492;81;28164;-60
2022/08/11 06:53:49;;;;;;;19.37;6.83;;;;;;;18.97;60.93;101683.86;1716932;81;99014;-61
2022/08/11 07:02:12;;;;;;;31.93;6.45;;;;;;;19.30;60.59;101680.87;1718851;81;25807;-62
2022/08/11 07:05:07;;;;;;;17.77;5.00;;;;;;;19.39;60.49;101685.73;1717139;81;98202;-62
2022/08/11 07:16:41;;;;;;;18.45;4.40;;;;;;;19.82;59.72;101681.63;1681992;80;99059;-63
2022/08/11 07:30:21;;;;;;;13.35;4.92;;;;;;;20.28;58.79;101675.36;1750774;80;98776;-61
2022/08/11 07:32:51;;;;;;;8.45;4.33;;;;;;;20.37;58.52;101674.25;1741383;80;26097;-61
2022/08/11 07:35:21;;;;;;;24.07;4.97;;;;;;;20.45;58.33;101670.16;1747363;80;98595;-61
2022/08/11 07:37:55;;;;;;;15.65;3.75;;;;;;;20.52;58.11;101672.36;1700324;82;28266;-61
2022/08/11 07:40:23;;;;;;;13.58;3.95;;;;;;;20.63;57.95;101675.71;1728872;81;25862;-62
2022/08/11 07:42:53;;;;;;;10.58;4.42;;;;;;;20.73;57.70;101679.05;1737488;80;98528;-61
2022/08/11 07:53:29;;;;;;;4.37;2.75;;;;;;;21.18;56.43;101678.13;1754734;81;98650;-61
2022/08/11 07:55:59;;;;;;;3.67;2.20;;;;;;;21.31;55.97;101676.79;1756512;81;25633;-60
2022/08/11 08:18:03;;;;;;;7.28;2.90;;;;;;;22.08;53.26;101649.72;1731309;82;98931;-61
2022/08/11 08:20:37;;;;;;;5.45;2.65;;;;;;;22.14;53.03;101643.79;1724209;81;25804;-60
2022/08/11 08:23:05;;;;;;;9.85;3.67;;;;;;;22.20;52.74;101651.52;1702309;81;99564;-61
2022/08/11 08:25:34;;;;;;;5.45;2.85;;;;;;;22.30;52.75;101648.95;1713590;81;26591;-61
2022/08/11 08:28:08;;;;;;;7.25;2.55;;;;;;;22.48;52.14;101648.03;1715772;81;25767;-61
2022/08/11 08:30:49;;;;;;;12.10;2.35;;;;;;;22.60;51.84;101654.78;1699435;82;98792;-63
2022/08/11 08:33:25;;;;;;;7.60;2.33;;;;;;;22.70;51.52;101652.20;1722837;81;26243;-61
2022/08/11 08:36:15;;;;;;;6.00;2.12;;;;;;;22.83;51.16;101647.55;1713988;81;98681;-62
2022/08/11 08:38:47;;;;;;;2.47;1.95;;;;;;;22.93;50.80;101645.83;1712071;81;26092;-60
2022/08/11 08:41:19;;;;;;;4.58;1.98;;;;;;;22.99;50.44;101646.70;1722760;81;98797;-63
2022/08/11 08:43:50;;;;;;;6.25;2.05;;;;;;;23.08;50.11;101650.56;1712811;81;27556;-61
2022/08/11 08:46:22;;;;;;;7.67;2.42;;;;;;;23.17;49.80;101651.70;1728140;81;25928;-61
2022/08/11 08:48:49;;;;;;;8.63;1.92;;;;;;;23.25;49.15;101649.21;1718864;81;99016;-61
2022/08/11 08:51:34;;;;;;;19.77;3.20;;;;;;;23.27;48.94;101647.22;1725721;81;26075;-61
2022/08/11 08:54:11;;;;;;;8.48;3.35;;;;;;;23.31;48.85;101650.09;1723229;81;99036;-61
2022/08/11 08:56:40;;;;;;;4.45;2.22;;;;;;;23.48;48.46;101642.71;1724196;81;27353;-61
2022/08/11 08:59:06;;;;;;;3.90;2.20;;;;;;;23.56;48.20;101638.88;1708997;82;98940;-61
2022/08/11 09:01:46;;;;;;;5.20;2.12;;;;;;;23.62;47.88;101640.24;1715590;81;25799;-62
2022/08/11 09:04:14;;;;;;;5.90;2.08;;;;;;;23.65;47.69;101629.04;1702086;82;26402;-61
2022/08/11 09:06:44;;;;;;;6.28;1.98;;;;;;;23.72;47.47;101628.91;1722463;81;98656;-61
2022/08/11 09:09:11;;;;;;;4.92;2.17;;;;;;;23.84;47.19;101630.62;1707899;81;27995;-61
2022/08/11 09:11:54;;;;;;;4.90;1.60;;;;;;;23.96;46.95;101620.01;1701666;81;98882;-61
2022/08/11 09:14:59;;;;;;;6.67;2.22;;;;;;;24.10;46.69;101626.19;1717138;81;25916;-65
2022/08/11 09:16:57;;;;;;;9.75;3.15;;;;;;;24.16;45.76;101618.32;1713660;81;98852;-62
2022/08/11 09:19:26;;;;;;;19.40;3.00;;;;;;;24.15;45.33;101620.69;1715730;81;25864;-62
2022/08/11 09:27:24;;;;;;;3.65;1.80;;;;;;;24.24;44.85;101629.49;1724637;81;25798;-62
2022/08/11 09:29:52;;;;;;;9.23;2.02;;;;;;;24.30;44.69;101621.78;1708369;81;98773;-61
2022/08/11 09:32:21;;;;;;;3.95;1.85;;;;;;;24.39;44.52;101622.37;1711360;81;25776;-61
2022/08/11 09:34:51;;;;;;;2.05;1.87;;;;;;;24.53;44.35;101631.64;1702893;82;28134;-63
2022/08/11 09:45:37;;;;;;;5.08;1.57;;;;;;;25.12;43.51;101611.84;1719953;81;25751;-62
2022/08/11 09:48:05;;;;;;;4.08;1.82;;;;;;;25.29;43.21;101608.45;1712462;81;98942;-62
2022/08/11 09:50:34;;;;;;;3.98;1.55;;;;;;;25.44;42.97;101601.56;1714454;81;25830;-62
2022/08/11 09:53:04;;;;;;;6.85;1.80;;;;;;;25.55;42.38;101605.58;1701294;82;98868;-63
2022/08/11 09:55:28;;;;;;;9.80;1.87;;;;;;;25.60;42.04;101602.91;1708552;80;27556;-63
2022/08/11 09:58:12;;;;;;;4.08;1.90;;;;;;;25.58;41.79;101611.80;1706492;82;25744;-63
2022/08/11 10:00:39;;;;;;;4.12;1.67;;;;;;;25.67;41.63;101600.00;1719485;81;98632;-62
2022/08/11 10:03:15;;;;;;;6.37;2.02;;;;;;;25.73;41.32;101598.07;1721793;81;25818;-62
2022/08/11 10:08:38;;;;;;;5.20;1.85;;;;;;;25.90;40.78;101589.64;1707079;81;26122;-62
2022/08/11 10:11:09;;;;;;;5.00;2.00;;;;;;;26.04;40.50;101591.94;1706673;81;98926;-62
2022/08/11 10:15:32;;;;;;;7.12;1.85;;;;;;;26.14;40.13;101592.81;1737288;80;28069;-61
2022/08/11 10:16:10;;;;;;;7.15;1.80;;;;;;;26.21;40.00;101587.96;1736898;80;25738;-61
2022/08/11 10:18:41;;;;;;;4.30;1.70;;;;;;;26.20;39.74;101586.23;1744015;80;98755;-61
2022/08/11 10:26:48;;;;;;;4.87;1.95;;;;;;;26.26;39.65;101583.41;1731920;80;26034;-61
2022/08/11 10:27:02;;;;;;;7.50;2.30;;;;;;;26.44;39.28;101576.19;1744348;80;27394;-63
2022/08/11 10:35:13;;;;;;;9.70;2.12;;;;;;;27.06;38.66;101562.89;1735824;80;99047;-61
2022/08/11 10:37:42;;;;;;;9.00;2.05;;;;;;;27.26;38.48;101567.28;1742789;80;25804;-61
2022/08/11 10:40:14;;;;;;;5.22;1.77;;;;;;;27.40;38.31;101563.16;1734531;80;27479;-61
2022/08/11 10:48:11;;;;;;;3.42;1.75;;;;;;;27.35;37.49;101552.60;1742581;80;98733;-63
2022/08/11 10:58:56;;;;;;;9.23;1.90;;;;;;;26.93;36.91;101551.31;1743561;80;98893;-63
2022/08/11 11:01:32;;;;;;;7.00;2.12;;;;;;;26.88;36.80;101550.90;1739335;80;25998;-62
2022/08/11 11:04:03;;;;;;;11.22;1.60;;;;;;;26.69;36.58;101543.06;1707733;81;26334;-61
2022/08/11 11:06:57;;;;;;;3.58;1.60;;;;;;;26.53;36.54;101536.81;1741149;80;98921;-62
2022/08/11 11:09:38;;;;;;;6.58;1.95;;;;;;;26.52;36.63;101535.59;1743247;80;26262;-62
2022/08/11 11:18:17;;;;;;;7.10;1.80;;;;;;;27.05;36.42;101519.88;1743555;80;98668;-62
2022/08/11 11:20:57;;;;;;;5.72;1.98;;;;;;;27.19;36.15;101517.12;1743012;80;27463;-61
2022/08/11 11:23:38;;;;;;;5.75;1.60;;;;;;;27.11;35.79;101516.52;1739314;80;99043;-62
2022/08/11 11:26:15;;;;;;;;;;;;;;;26.94;35.73;101522.28;1746573;80;26433;-62
2022/08/11 11:29:24;;;;;;;7.80;1.80;;;;;;;26.94;35.76;101521.41;1739478;80;26153;-63
2022/08/11 11:32:19;;;;;;;8.88;2.17;;;;;;;27.09;35.77;101514.42;1738200;80;25745;-63
2022/08/11 11:34:58;;;;;;;4.62;1.80;;;;;;;27.27;35.53;101513.96;1741881;80;28074;-63
2022/08/11 11:37:25;;;;;;;10.95;2.22;;;;;;;27.40;35.46;101514.47;1736021;80;98749;-62
2022/08/11 11:39:54;;;;;;;4.00;1.90;;;;;;;27.72;35.36;101512.61;1737645;80;25910;-62
2022/08/11 11:42:22;;;;;;;4.08;1.80;;;;;;;27.86;34.82;101509.81;1738434;80;98789;-62
2022/08/11 11:44:49;;;;;;;7.53;2.22;;;;;;;27.79;34.55;101512.84;1740757;80;25813;-62
2022/08/11 11:47:18;;;;;;;2.83;1.65;;;;;;;27.86;34.50;101508.95;1737764;80;27437;-63
2022/08/11 11:49:45;;;;;;;5.05;2.37;;;;;;;28.01;34.38;101502.72;1744401;80;98528;-62
2022/08/11 11:52:17;;;;;;;1.95;1.80;;;;;;;28.11;34.12;101508.14;1747244;80;25789;-61
2022/08/11 11:54:49;;;;;;;1.67;1.55;;;;;;;28.17;33.77;101502.50;1739790;80;98579;-61
2022/08/11 12:02:51;;;;;;;3.77;1.70;;;;;;;28.85;33.38;101502.66;1741872;80;25764;-62
2022/08/11 12:05:18;;;;;;;7.75;1.72;;;;;;;28.96;33.31;101506.50;1743361;80;25814;-62
2022/08/11 12:10:30;;;;;;;3.80;1.40;;;;;;;28.92;32.75;101495.44;1732895;80;25719;-62
2022/08/11 12:15:46;;;;;;;2.80;1.50;;;;;;;29.31;32.45;101493.02;1730379;80;25750;-63
2022/08/11 12:18:14;;;;;;;4.60;1.62;;;;;;;29.26;32.03;101494.03;1726483;80;98608;-63
2022/08/11 12:20:43;;;;;;;7.20;1.40;;;;;;;28.97;31.99;101488.39;1730936;80;26009;-63
2022/08/11 12:28:44;;;;;;;4.70;1.80;;;;;;;28.82;31.75;101479.48;1725506;80;25776;-61
2022/08/11 12:31:11;;;;;;;6.10;2.05;;;;;;;28.80;31.63;101476.03;1721902;80;98732;-61
2022/08/11 12:33:42;;;;;;;3.83;1.75;;;;;;;28.52;31.32;101470.73;1732296;80;26711;-63
2022/08/11 12:36:15;;;;;;;3.17;1.70;;;;;;;28.46;31.40;101465.88;1735329;80;98783;-63
2022/08/11 12:38:38;;;;;;;3.67;1.57;;;;;;;28.62;31.50;101459.04;1726004;80;27406;-61
2022/08/11 12:46:39;;;;;;;11.43;2.00;;;;;;;28.65;31.29;101449.57;1725802;80;26755;-60
2022/08/11 12:52:11;;;;;;;6.87;1.65;;;;;;;28.90;31.21;101449.20;1727814;80;27651;-61
2022/08/11 12:55:05;;;;;;;5.35;1.92;;;;;;;28.95;31.12;101446.30;1726658;80;98775;-63
2022/08/11 13:06:01;;;;;;;2.70;1.32;;;;;;;29.75;30.37;101434.77;1725912;80;98936;-63
2022/08/11 13:08:30;;;;;;;10.82;1.62;;;;;;;30.16;30.26;101430.11;1724428;80;26259;-61
2022/08/11 13:13:48;;;;;;;2.55;1.85;;;;;;;30.58;29.30;101427.97;1710369;81;98738;-63
2022/08/11 13:16:16;;;;;;;4.15;1.82;;;;;;;30.49;28.93;101431.77;1720588;81;25770;-63
2022/08/11 13:18:43;;;;;;;4.78;1.60;;;;;;;30.28;28.78;101424.56;1720510;81;98457;-63
2022/08/11 13:21:14;;;;;;;2.87;1.60;;;;;;;29.90;28.47;101429.76;1702762;82;25815;-63
2022/08/11 13:23:41;;;;;;;9.33;1.90;;;;;;;29.34;28.55;101420.88;1720790;80;98829;-63
2022/08/11 13:26:08;;;;;;;8.90;1.72;;;;;;;29.12;28.83;101413.22;1722455;81;28219;-62
2022/08/11 13:28:37;;;;;;;4.00;2.02;;;;;;;29.00;28.93;101419.06;1709178;81;25779;-60
2022/08/11 13:31:13;;;;;;;6.53;1.92;;;;;;;28.92;29.01;101419.55;1711558;81;97820;-60
2022/08/11 13:33:44;;;;;;;2.52;1.60;;;;;;;29.00;29.01;101410.78;1675868;83;25718;-62
2022/08/11 13:36:12;;;;;;;5.58;1.95;;;;;;;28.85;28.88;101400.55;1713374;81;98797;-62
2022/08/11 13:38:41;;;;;;;6.42;2.00;;;;;;;29.07;29.22;101409.07;1707509;82;26452;-61
2022/08/11 13:43:54;;;;;;;5.03;2.27;;;;;;;29.83;28.79;101398.32;1694012;82;98732;-62
2022/08/11 13:46:23;;;;;;;8.85;2.25;;;;;;;30.10;28.77;101396.25;1719076;81;26154;-64
2022/08/11 13:48:55;;;;;;;4.00;2.10;;;;;;;30.23;28.21;101386.37;1713582;81;99390;-62
2022/08/11 13:51:29;;;;;;;6.85;2.08;;;;;;;30.56;28.51;101377.45;1703534;81;25964;-62
2022/08/11 13:54:06;;;;;;;2.45;1.55;;;;;;;31.03;28.39;101373.80;1714947;81;98920;-62
2022/08/11 13:56:34;;;;;;;11.20;1.77;;;;;;;31.30;27.81;101369.63;1722360;81;27382;-60
2022/08/11 13:59:04;;;;;;;8.73;1.90;;;;;;;31.58;27.68;101365.25;1720013;81;25727;-63
2022/08/11 14:01:34;;;;;;;4.87;1.57;;;;;;;31.51;27.37;101363.41;1712890;81;99039;-63
2022/08/11 14:04:10;;;;;;;2.12;1.60;;;;;;;31.71;27.47;101367.43;1721314;81;26806;-63
2022/08/11 14:06:40;;;;;;;7.92;2.20;;;;;;;31.80;27.12;101356.60;1717959;81;98714;-63
2022/08/11 14:09:08;;;;;;;;;;;;;;;32.10;27.29;101358.03;1720458;81;27529;-62
2022/08/11 14:14:24;;;;;;;8.43;1.77;;;;;;;32.95;26.95;101344.53;1722932;81;98624;-63
2022/08/11 14:16:55;;;;;;;3.02;1.35;;;;;;;33.46;26.88;101347.23;1717268;81;26076;-62
2022/08/11 14:19:24;;;;;;;;;;;;;;;33.69;26.49;101349.80;1727242;81;98610;-62
2022/08/11 14:22:06;;;;;;;5.92;1.62;;;;;;;33.78;26.16;101357.80;1719525;81;29639;-61
2022/08/11 14:24:48;;;;;;;4.08;1.47;;;;;;;33.24;26.12;101348.59;1720786;81;98938;-62
2022/08/11 14:27:16;;;;;;;3.20;1.40;;;;;;;32.57;25.96;101350.22;1720430;81;25756;-64
2022/08/11 14:29:45;;;;;;;15.93;2.20;;;;;;;31.87;25.99;101357.58;1722996;81;26660;-62
2022/08/11 14:32:14;;;;;;;12.90;2.25;;;;;;;31.33;25.90;101356.80;1718993;81;98719;-63
2022/08/11 14:34:43;;;;;;;4.05;1.98;;;;;;;30.87;26.08;101351.22;1723597;81;28180;-62
2022/08/11 14:37:14;;;;;;;6.07;1.77;;;;;;;30.65;26.07;101352.88;1717982;81;98802;-62
2022/08/11 14:39:43;;;;;;;;;;;;;;;30.45;26.11;101355.70;1718831;81;25851;-62
2022/08/11 14:47:55;;;;;;;3.77;1.60;;;;;;;30.64;25.83;101351.68;1718215;81;28571;-61
2022/08/11 14:50:24;;;;;;;5.00;1.40;;;;;;;30.96;26.23;101357.05;1712127;81;97830;-61
2022/08/11 14:53:04;;;;;;;4.15;1.60;;;;;;;31.24;25.82;101350.45;1721614;81;25291;-62
2022/08/11 14:58:22;;;;;;;7.60;1.50;;;;;;;31.68;25.70;101351.14;1724438;81;25933;-62
2022/08/11 15:00:56;;;;;;;3.75;1.77;;;;;;;31.85;25.37;101345.81;1720421;81;99176;-61
2022/08/11 15:03:25;;;;;;;5.12;1.92;;;;;;;32.03;25.29;101349.61;1715794;81;26520;-61
2022/08/11 15:05:55;;;;;;;4.90;1.50;;;;;;;32.43;25.43;101349.70;1724151;81;26390;-62
2022/08/11 15:08:53;;;;;;;10.55;1.72;;;;;;;32.68;25.04;101336.90;1717999;81;98618;-62
2022/08/11 15:10:53;;;;;;;7.60;1.60;;;;;;;32.67;25.21;101344.89;1715239;81;25736;-63
2022/08/11 15:13:20;;;;;;;7.87;1.90;;;;;;;32.74;24.83;101345.84;1719081;81;98775;-62
2022/08/11 15:18:32;;;;;;;4.87;1.42;;;;;;;31.55;24.70;101341.21;1715311;81;99028;-62
2022/08/11 15:37:51;;;;;;;4.85;1.67;;;;;;;29.20;25.78;101338.70;1704944;81;99014;-63
2022/08/11 15:46:33;;;;;;;8.45;2.10;;;;;;;31.11;25.68;101328.05;1705210;81;26681;-62
2022/08/11 15:49:22;;;;;;;6.75;2.22;;;;;;;31.74;25.57;101328.24;1680874;83;98749;-61
2022/08/11 15:52:02;;;;;;;7.65;1.95;;;;;;;32.09;25.21;101334.13;1720445;81;25847;-61
2022/08/11 15:54:31;;;;;;;10.90;1.50;;;;;;;32.59;25.17;101335.63;1718752;81;99026;-61
2022/08/11 15:57:00;;;;;;;3.33;1.60;;;;;;;33.08;24.87;101332.19;1704896;82;26630;-62
2022/08/11 16:05:09;;;;;;;4.20;1.67;;;;;;;31.99;24.61;101328.00;1726571;81;25796;-62
2022/08/11 16:07:37;;;;;;;4.80;1.67;;;;;;;32.12;24.64;101311.55;1719731;81;98741;-62
2022/08/11 16:10:10;;;;;;;10.03;2.10;;;;;;;31.92;24.48;101316.80;1729009;81;25849;-63
2022/08/11 16:18:20;;;;;;;9.58;1.80;;;;;;;31.59;24.77;101325.93;1711419;82;98936;-63
2022/08/11 16:20:51;;;;;;;7.20;1.60;;;;;;;31.96;24.60;101317.63;1718186;81;28464;-62
2022/08/11 16:23:18;;;;;;;5.70;1.10;;;;;;;31.75;24.67;101318.88;1695678;82;25753;-62
2022/08/11 16:25:46;;;;;;;6.80;1.80;;;;;;;31.37;24.59;101319.37;1728995;81;98625;-61
2022/08/11 16:28:15;;;;;;;10.18;1.87;;;;;;;31.32;24.65;101321.31;1705524;82;26748;-62
2022/08/11 16:30:45;;;;;;;6.63;1.90;;;;;;;31.39;24.70;101319.18;1680363;83;99145;-61
2022/08/11 16:33:12;;;;;;;6.78;1.80;;;;;;;30.99;24.67;101320.69;1716982;81;27761;-62
2022/08/11 16:38:35;;;;;;;6.05;1.47;;;;;;;30.89;24.96;101326.12;1703428;82;98445;-62
2022/08/11 16:41:08;;;;;;;6.17;1.50;;;;;;;31.22;25.00;101322.61;1726393;81;28080;-62
2022/08/11 16:49:23;;;;;;;10.35;1.67;;;;;;;32.21;24.93;101320.12;1726143;81;98842;-62